sensor_id;sensor_type;location;lat;lon;timestamp;P1;durP1;ratioP1;P2;durP2;ratioP2
32365;SDS011;18837;46.832;16.838;2023-02-15T00:00:22;37.90;;;24.03;;
32365;SDS011;18837;46.832;16.838;2023-02-15T00:02:48;40.03;;;25.23;;
32365;SDS011;18837;46.832;16.838;2023-02-15T00:05:14;37.90;;;24.57;;
32365;SDS011;18837;46.832;16.838;2023-02-15T00:07:39;37.90;;;25.20;;
32365;SDS011;18837;46.832;16.838;2023-02-15T00:10:05;39.60;;;25.77;;
32365;SDS011;18837;46.832;16.838;2023-02-15T00:12:32;39.07;;;25.80;;
32365;SDS011;18837;46.832;16.838;2023-02-15T00:15:16;39.23;;;26.80;;
32365;SDS011;18837;46.832;16.838;2023-02-15T00:17:42;41.57;;;27.07;;
32365;SDS011;18837;46.832;16.838;2023-02-15T00:20:08;42.43;;;25.43;;
32365;SDS011;18837;46.832;16.838;2023-02-15T00:22:34;39.90;;;25.17;;
32365;SDS011;18837;46.832;16.838;2023-02-15T00:25:00;42.73;;;27.37;;
32365;SDS011;18837;46.832;16.838;2023-02-15T00:27:25;42.37;;;26.80;;
32365;SDS011;18837;46.832;16.838;2023-02-15T00:29:51;40.93;;;25.67;;
32365;SDS011;18837;46.832;16.838;2023-02-15T00:32:16;37.57;;;26.27;;
32365;SDS011;18837;46.832;16.838;2023-02-15T00:34:42;41.20;;;27.83;;
32365;SDS011;18837;46.832;16.838;2023-02-15T00:37:08;41.17;;;26.80;;
32365;SDS011;18837;46.832;16.838;2023-02-15T00:39:34;44.10;;;26.50;;
32365;SDS011;18837;46.832;16.838;2023-02-15T00:41:59;43.40;;;27.57;;
32365;SDS011;18837;46.832;16.838;2023-02-15T00:44:25;37.57;;;25.20;;
32365;SDS011;18837;46.832;16.838;2023-02-15T00:46:51;39.17;;;26.37;;
32365;SDS011;18837;46.832;16.838;2023-02-15T00:49:17;41.83;;;27.77;;
32365;SDS011;18837;46.832;16.838;2023-02-15T00:51:42;43.03;;;27.47;;
32365;SDS011;18837;46.832;16.838;2023-02-15T00:54:08;42.00;;;26.17;;
32365;SDS011;18837;46.832;16.838;2023-02-15T00:56:34;39.97;;;26.00;;
32365;SDS011;18837;46.832;16.838;2023-02-15T00:58:59;39.60;;;26.60;;
32365;SDS011;18837;46.832;16.838;2023-02-15T01:01:25;39.50;;;26.57;;
32365;SDS011;18837;46.832;16.838;2023-02-15T01:03:51;41.20;;;26.97;;
32365;SDS011;18837;46.832;16.838;2023-02-15T01:06:18;41.43;;;26.67;;
32365;SDS011;18837;46.832;16.838;2023-02-15T01:08:45;39.87;;;25.97;;
32365;SDS011;18837;46.832;16.838;2023-02-15T01:11:12;40.83;;;25.90;;
32365;SDS011;18837;46.832;16.838;2023-02-15T01:13:40;40.07;;;25.87;;
32365;SDS011;18837;46.832;16.838;2023-02-15T01:16:07;40.43;;;25.37;;
32365;SDS011;18837;46.832;16.838;2023-02-15T01:18:33;42.57;;;26.03;;
32365;SDS011;18837;46.832;16.838;2023-02-15T01:20:59;37.60;;;25.70;;
32365;SDS011;18837;46.832;16.838;2023-02-15T01:23:33;39.30;;;24.80;;
32365;SDS011;18837;46.832;16.838;2023-02-15T01:26:01;38.00;;;25.23;;
32365;SDS011;18837;46.832;16.838;2023-02-15T01:28:27;39.50;;;25.73;;
32365;SDS011;18837;46.832;16.838;2023-02-15T01:30:53;39.13;;;25.67;;
32365;SDS011;18837;46.832;16.838;2023-02-15T01:33:19;36.93;;;25.33;;
32365;SDS011;18837;46.832;16.838;2023-02-15T01:35:45;36.17;;;25.43;;
32365;SDS011;18837;46.832;16.838;2023-02-15T01:38:11;39.43;;;25.17;;
32365;SDS011;18837;46.832;16.838;2023-02-15T01:40:38;38.40;;;25.13;;
32365;SDS011;18837;46.832;16.838;2023-02-15T01:43:07;37.50;;;24.73;;
32365;SDS011;18837;46.832;16.838;2023-02-15T01:45:35;38.97;;;25.47;;
32365;SDS011;18837;46.832;16.838;2023-02-15T01:48:04;37.57;;;23.77;;
32365;SDS011;18837;46.832;16.838;2023-02-15T01:50:58;34.90;;;25.60;;
32365;SDS011;18837;46.832;16.838;2023-02-15T01:53:27;40.20;;;26.07;;
32365;SDS011;18837;46.832;16.838;2023-02-15T01:56:06;35.27;;;24.57;;
32365;SDS011;18837;46.832;16.838;2023-02-15T01:58:55;35.97;;;23.67;;
32365;SDS011;18837;46.832;16.838;2023-02-15T02:01:24;35.17;;;24.13;;
32365;SDS011;18837;46.832;16.838;2023-02-15T02:06:26;35.30;;;23.37;;
32365;SDS011;18837;46.832;16.838;2023-02-15T02:08:53;35.20;;;23.63;;
32365;SDS011;18837;46.832;16.838;2023-02-15T02:11:19;36.07;;;23.53;;
32365;SDS011;18837;46.832;16.838;2023-02-15T02:13:45;35.67;;;24.47;;
32365;SDS011;18837;46.832;16.838;2023-02-15T02:33:02;38.90;;;24.80;;
32365;SDS011;18837;46.832;16.838;2023-02-15T02:38:11;35.33;;;23.97;;
32365;SDS011;18837;46.832;16.838;2023-02-15T02:41:17;36.73;;;24.13;;
32365;SDS011;18837;46.832;16.838;2023-02-15T02:44:21;34.87;;;23.30;;
32365;SDS011;18837;46.832;16.838;2023-02-15T02:46:51;36.47;;;23.90;;
32365;SDS011;18837;46.832;16.838;2023-02-15T02:52:00;32.03;;;22.20;;
32365;SDS011;18837;46.832;16.838;2023-02-15T02:54:27;39.03;;;24.20;;
32365;SDS011;18837;46.832;16.838;2023-02-15T02:56:54;36.00;;;23.03;;
32365;SDS011;18837;46.832;16.838;2023-02-15T02:59:28;35.00;;;22.40;;
32365;SDS011;18837;46.832;16.838;2023-02-15T03:02:03;36.13;;;23.00;;
32365;SDS011;18837;46.832;16.838;2023-02-15T03:04:41;32.97;;;22.70;;
32365;SDS011;18837;46.832;16.838;2023-02-15T03:07:12;37.93;;;23.27;;
32365;SDS011;18837;46.832;16.838;2023-02-15T03:09:47;34.20;;;23.00;;
32365;SDS011;18837;46.832;16.838;2023-02-15T03:12:17;36.80;;;23.07;;
32365;SDS011;18837;46.832;16.838;2023-02-15T03:14:53;34.93;;;23.20;;
32365;SDS011;18837;46.832;16.838;2023-02-15T03:17:42;35.07;;;22.70;;
32365;SDS011;18837;46.832;16.838;2023-02-15T03:20:35;34.07;;;22.13;;
32365;SDS011;18837;46.832;16.838;2023-02-15T03:23:03;33.33;;;22.90;;
32365;SDS011;18837;46.832;16.838;2023-02-15T03:25:46;33.30;;;22.93;;
32365;SDS011;18837;46.832;16.838;2023-02-15T03:28:20;36.57;;;22.97;;
32365;SDS011;18837;46.832;16.838;2023-02-15T03:30:54;37.80;;;24.40;;
32365;SDS011;18837;46.832;16.838;2023-02-15T03:33:23;34.13;;;22.80;;
32365;SDS011;18837;46.832;16.838;2023-02-15T03:38:34;34.33;;;23.07;;
32365;SDS011;18837;46.832;16.838;2023-02-15T03:41:10;33.47;;;23.10;;
32365;SDS011;18837;46.832;16.838;2023-02-15T03:43:45;32.07;;;22.87;;
32365;SDS011;18837;46.832;16.838;2023-02-15T03:46:20;33.77;;;22.83;;
32365;SDS011;18837;46.832;16.838;2023-02-15T03:48:55;33.90;;;22.87;;
32365;SDS011;18837;46.832;16.838;2023-02-15T03:51:29;33.93;;;22.23;;
32365;SDS011;18837;46.832;16.838;2023-02-15T03:54:10;35.43;;;23.20;;
32365;SDS011;18837;46.832;16.838;2023-02-15T03:57:01;35.77;;;21.67;;
32365;SDS011;18837;46.832;16.838;2023-02-15T03:59:46;33.80;;;22.20;;
32365;SDS011;18837;46.832;16.838;2023-02-15T04:02:33;33.87;;;23.27;;
32365;SDS011;18837;46.832;16.838;2023-02-15T04:05:25;31.40;;;21.73;;
32365;SDS011;18837;46.832;16.838;2023-02-15T04:07:51;33.77;;;22.80;;
32365;SDS011;18837;46.832;16.838;2023-02-15T04:10:16;34.23;;;22.07;;
32365;SDS011;18837;46.832;16.838;2023-02-15T04:13:01;32.70;;;21.87;;
32365;SDS011;18837;46.832;16.838;2023-02-15T04:15:26;36.67;;;23.00;;
32365;SDS011;18837;46.832;16.838;2023-02-15T04:18:11;34.77;;;22.80;;
32365;SDS011;18837;46.832;16.838;2023-02-15T04:20:36;31.63;;;22.13;;
32365;SDS011;18837;46.832;16.838;2023-02-15T04:23:20;32.37;;;22.83;;
32365;SDS011;18837;46.832;16.838;2023-02-15T04:26:04;33.47;;;23.00;;
32365;SDS011;18837;46.832;16.838;2023-02-15T04:28:30;33.77;;;22.07;;
32365;SDS011;18837;46.832;16.838;2023-02-15T04:30:56;35.20;;;23.00;;
32365;SDS011;18837;46.832;16.838;2023-02-15T04:33:23;32.80;;;22.47;;
32365;SDS011;18837;46.832;16.838;2023-02-15T04:35:48;31.97;;;21.47;;
32365;SDS011;18837;46.832;16.838;2023-02-15T04:38:14;30.70;;;22.17;;
32365;SDS011;18837;46.832;16.838;2023-02-15T04:40:40;34.53;;;22.73;;
32365;SDS011;18837;46.832;16.838;2023-02-15T04:43:05;33.40;;;22.03;;
32365;SDS011;18837;46.832;16.838;2023-02-15T04:45:31;31.67;;;21.57;;
32365;SDS011;18837;46.832;16.838;2023-02-15T04:47:57;31.83;;;21.57;;
32365;SDS011;18837;46.832;16.838;2023-02-15T04:50:22;32.10;;;22.37;;
32365;SDS011;18837;46.832;16.838;2023-02-15T04:52:48;33.57;;;22.27;;
32365;SDS011;18837;46.832;16.838;2023-02-15T04:55:14;32.83;;;22.17;;
32365;SDS011;18837;46.832;16.838;2023-02-15T04:57:40;32.50;;;21.93;;
32365;SDS011;18837;46.832;16.838;2023-02-15T05:00:06;33.57;;;22.50;;
32365;SDS011;18837;46.832;16.838;2023-02-15T05:02:33;32.13;;;21.63;;
32365;SDS011;18837;46.832;16.838;2023-02-15T05:04:59;34.33;;;22.37;;
32365;SDS011;18837;46.832;16.838;2023-02-15T05:07:25;36.87;;;23.03;;
32365;SDS011;18837;46.832;16.838;2023-02-15T05:09:50;36.90;;;23.07;;
32365;SDS011;18837;46.832;16.838;2023-02-15T05:12:16;34.13;;;22.30;;
32365;SDS011;18837;46.832;16.838;2023-02-15T05:14:42;33.50;;;22.87;;
32365;SDS011;18837;46.832;16.838;2023-02-15T05:17:07;33.83;;;22.23;;
32365;SDS011;18837;46.832;16.838;2023-02-15T05:19:33;31.23;;;21.00;;
32365;SDS011;18837;46.832;16.838;2023-02-15T05:21:59;34.17;;;22.23;;
32365;SDS011;18837;46.832;16.838;2023-02-15T05:24:25;33.67;;;21.60;;
32365;SDS011;18837;46.832;16.838;2023-02-15T05:27:12;33.57;;;22.17;;
32365;SDS011;18837;46.832;16.838;2023-02-15T05:29:56;29.30;;;20.27;;
32365;SDS011;18837;46.832;16.838;2023-02-15T05:32:22;32.60;;;21.03;;
32365;SDS011;18837;46.832;16.838;2023-02-15T05:34:50;32.03;;;21.23;;
32365;SDS011;18837;46.832;16.838;2023-02-15T05:37:16;33.47;;;21.40;;
32365;SDS011;18837;46.832;16.838;2023-02-15T05:39:42;32.70;;;20.53;;
32365;SDS011;18837;46.832;16.838;2023-02-15T05:42:08;31.07;;;21.33;;
32365;SDS011;18837;46.832;16.838;2023-02-15T05:44:33;32.73;;;21.30;;
32365;SDS011;18837;46.832;16.838;2023-02-15T05:46:59;31.70;;;20.77;;
32365;SDS011;18837;46.832;16.838;2023-02-15T05:49:25;29.70;;;20.60;;
32365;SDS011;18837;46.832;16.838;2023-02-15T05:51:51;34.93;;;21.63;;
32365;SDS011;18837;46.832;16.838;2023-02-15T05:54:16;31.07;;;21.63;;
32365;SDS011;18837;46.832;16.838;2023-02-15T05:56:42;32.17;;;21.70;;
32365;SDS011;18837;46.832;16.838;2023-02-15T05:59:08;30.93;;;21.13;;
32365;SDS011;18837;46.832;16.838;2023-02-15T06:01:34;31.70;;;21.57;;
32365;SDS011;18837;46.832;16.838;2023-02-15T06:03:59;33.00;;;22.00;;
32365;SDS011;18837;46.832;16.838;2023-02-15T06:06:25;32.37;;;21.53;;
32365;SDS011;18837;46.832;16.838;2023-02-15T06:08:51;30.80;;;20.23;;
32365;SDS011;18837;46.832;16.838;2023-02-15T06:11:16;31.90;;;21.00;;
32365;SDS011;18837;46.832;16.838;2023-02-15T06:13:42;30.47;;;21.10;;
32365;SDS011;18837;46.832;16.838;2023-02-15T06:16:08;32.47;;;21.50;;
32365;SDS011;18837;46.832;16.838;2023-02-15T06:18:34;35.40;;;21.43;;
32365;SDS011;18837;46.832;16.838;2023-02-15T06:20:59;32.73;;;21.53;;
32365;SDS011;18837;46.832;16.838;2023-02-15T06:23:25;35.53;;;21.73;;
32365;SDS011;18837;46.832;16.838;2023-02-15T06:25:51;34.93;;;22.63;;
32365;SDS011;18837;46.832;16.838;2023-02-15T06:28:18;30.80;;;21.07;;
32365;SDS011;18837;46.832;16.838;2023-02-15T06:30:43;28.73;;;20.33;;
32365;SDS011;18837;46.832;16.838;2023-02-15T06:33:09;34.67;;;22.90;;
32365;SDS011;18837;46.832;16.838;2023-02-15T06:35:35;33.03;;;21.97;;
32365;SDS011;18837;46.832;16.838;2023-02-15T06:38:01;33.13;;;22.37;;
32365;SDS011;18837;46.832;16.838;2023-02-15T06:40:27;34.67;;;22.43;;
32365;SDS011;18837;46.832;16.838;2023-02-15T06:42:52;32.93;;;21.80;;
32365;SDS011;18837;46.832;16.838;2023-02-15T06:45:18;35.67;;;23.17;;
32365;SDS011;18837;46.832;16.838;2023-02-15T06:47:44;33.17;;;22.43;;
32365;SDS011;18837;46.832;16.838;2023-02-15T06:50:09;33.10;;;21.50;;
32365;SDS011;18837;46.832;16.838;2023-02-15T06:52:35;32.47;;;21.90;;
32365;SDS011;18837;46.832;16.838;2023-02-15T06:55:01;34.63;;;22.67;;
32365;SDS011;18837;46.832;16.838;2023-02-15T06:57:27;32.97;;;21.40;;
32365;SDS011;18837;46.832;16.838;2023-02-15T06:59:53;32.00;;;22.37;;
32365;SDS011;18837;46.832;16.838;2023-02-15T07:02:19;33.30;;;21.13;;
32365;SDS011;18837;46.832;16.838;2023-02-15T07:04:44;32.73;;;21.37;;
32365;SDS011;18837;46.832;16.838;2023-02-15T07:07:12;33.73;;;22.90;;
32365;SDS011;18837;46.832;16.838;2023-02-15T07:09:38;31.53;;;21.90;;
32365;SDS011;18837;46.832;16.838;2023-02-15T07:12:04;31.50;;;21.83;;
32365;SDS011;18837;46.832;16.838;2023-02-15T07:14:49;37.10;;;22.33;;
32365;SDS011;18837;46.832;16.838;2023-02-15T07:17:15;33.33;;;22.37;;
32365;SDS011;18837;46.832;16.838;2023-02-15T07:19:40;36.73;;;23.07;;
32365;SDS011;18837;46.832;16.838;2023-02-15T07:22:06;33.20;;;22.00;;
32365;SDS011;18837;46.832;16.838;2023-02-15T07:24:32;34.53;;;23.07;;
32365;SDS011;18837;46.832;16.838;2023-02-15T07:26:57;36.27;;;21.87;;
32365;SDS011;18837;46.832;16.838;2023-02-15T07:29:23;37.30;;;23.13;;
32365;SDS011;18837;46.832;16.838;2023-02-15T07:31:49;31.40;;;21.43;;
32365;SDS011;18837;46.832;16.838;2023-02-15T07:34:15;31.37;;;21.47;;
32365;SDS011;18837;46.832;16.838;2023-02-15T07:36:41;34.60;;;23.07;;
32365;SDS011;18837;46.832;16.838;2023-02-15T07:39:09;32.80;;;21.13;;
32365;SDS011;18837;46.832;16.838;2023-02-15T07:41:35;30.17;;;21.97;;
32365;SDS011;18837;46.832;16.838;2023-02-15T07:44:01;32.83;;;21.57;;
32365;SDS011;18837;46.832;16.838;2023-02-15T07:46:27;31.63;;;22.03;;
32365;SDS011;18837;46.832;16.838;2023-02-15T07:48:53;31.03;;;21.93;;
32365;SDS011;18837;46.832;16.838;2023-02-15T07:51:19;31.10;;;21.53;;
32365;SDS011;18837;46.832;16.838;2023-02-15T07:53:45;31.33;;;21.10;;
32365;SDS011;18837;46.832;16.838;2023-02-15T07:56:12;31.33;;;21.07;;
32365;SDS011;18837;46.832;16.838;2023-02-15T07:58:39;32.10;;;21.00;;
32365;SDS011;18837;46.832;16.838;2023-02-15T08:03:44;30.10;;;20.87;;
32365;SDS011;18837;46.832;16.838;2023-02-15T08:06:11;34.73;;;22.53;;
32365;SDS011;18837;46.832;16.838;2023-02-15T08:08:38;31.97;;;21.10;;
32365;SDS011;18837;46.832;16.838;2023-02-15T08:11:06;32.73;;;21.80;;
32365;SDS011;18837;46.832;16.838;2023-02-15T08:18:57;31.23;;;21.20;;
32365;SDS011;18837;46.832;16.838;2023-02-15T08:21:25;33.33;;;21.13;;
32365;SDS011;18837;46.832;16.838;2023-02-15T08:23:53;34.93;;;22.67;;
32365;SDS011;18837;46.832;16.838;2023-02-15T08:26:19;30.23;;;21.33;;
32365;SDS011;18837;46.832;16.838;2023-02-15T08:28:45;31.43;;;20.53;;
32365;SDS011;18837;46.832;16.838;2023-02-15T08:31:12;32.87;;;21.30;;
32365;SDS011;18837;46.832;16.838;2023-02-15T08:33:39;29.17;;;20.40;;
32365;SDS011;18837;46.832;16.838;2023-02-15T08:36:14;31.97;;;21.87;;
32365;SDS011;18837;46.832;16.838;2023-02-15T08:38:41;30.13;;;19.67;;
32365;SDS011;18837;46.832;16.838;2023-02-15T08:41:09;30.93;;;21.27;;
32365;SDS011;18837;46.832;16.838;2023-02-15T08:43:38;28.60;;;20.53;;
32365;SDS011;18837;46.832;16.838;2023-02-15T08:46:05;32.77;;;21.20;;
32365;SDS011;18837;46.832;16.838;2023-02-15T08:48:31;29.83;;;20.73;;
32365;SDS011;18837;46.832;16.838;2023-02-15T08:50:57;33.13;;;21.63;;
32365;SDS011;18837;46.832;16.838;2023-02-15T08:53:23;31.67;;;20.83;;
32365;SDS011;18837;46.832;16.838;2023-02-15T08:55:58;29.70;;;20.13;;
32365;SDS011;18837;46.832;16.838;2023-02-15T08:58:24;29.27;;;20.87;;
32365;SDS011;18837;46.832;16.838;2023-02-15T09:00:50;30.33;;;20.50;;
32365;SDS011;18837;46.832;16.838;2023-02-15T09:03:16;28.67;;;19.77;;
32365;SDS011;18837;46.832;16.838;2023-02-15T09:05:42;32.40;;;20.30;;
32365;SDS011;18837;46.832;16.838;2023-02-15T09:08:08;31.97;;;19.93;;
32365;SDS011;18837;46.832;16.838;2023-02-15T09:10:34;31.80;;;20.33;;
32365;SDS011;18837;46.832;16.838;2023-02-15T09:13:00;30.63;;;20.93;;
32365;SDS011;18837;46.832;16.838;2023-02-15T09:15:25;30.70;;;19.30;;
32365;SDS011;18837;46.832;16.838;2023-02-15T09:17:51;29.73;;;19.47;;
32365;SDS011;18837;46.832;16.838;2023-02-15T09:20:17;32.47;;;19.53;;
32365;SDS011;18837;46.832;16.838;2023-02-15T09:22:43;29.33;;;19.43;;
32365;SDS011;18837;46.832;16.838;2023-02-15T09:25:09;27.87;;;18.23;;
32365;SDS011;18837;46.832;16.838;2023-02-15T09:27:35;30.50;;;19.67;;
32365;SDS011;18837;46.832;16.838;2023-02-15T09:30:02;28.43;;;18.97;;
32365;SDS011;18837;46.832;16.838;2023-02-15T09:32:28;30.07;;;19.73;;
32365;SDS011;18837;46.832;16.838;2023-02-15T09:34:54;27.80;;;19.33;;
32365;SDS011;18837;46.832;16.838;2023-02-15T09:37:19;28.37;;;19.17;;
32365;SDS011;18837;46.832;16.838;2023-02-15T09:39:45;31.87;;;20.00;;
32365;SDS011;18837;46.832;16.838;2023-02-15T09:56:30;28.00;;;18.97;;
32365;SDS011;18837;46.832;16.838;2023-02-15T09:59:15;30.30;;;19.60;;
32365;SDS011;18837;46.832;16.838;2023-02-15T10:04:45;30.30;;;20.00;;
32365;SDS011;18837;46.832;16.838;2023-02-15T10:10:48;26.67;;;18.03;;
32365;SDS011;18837;46.832;16.838;2023-02-15T10:16:05;28.07;;;19.27;;
32365;SDS011;18837;46.832;16.838;2023-02-15T10:27:49;26.67;;;18.70;;
32365;SDS011;18837;46.832;16.838;2023-02-15T10:30:16;25.47;;;18.33;;
32365;SDS011;18837;46.832;16.838;2023-02-15T10:33:01;31.10;;;19.27;;
32365;SDS011;18837;46.832;16.838;2023-02-15T10:47:24;23.30;;;16.07;;
32365;SDS011;18837;46.832;16.838;2023-02-15T10:55:40;24.83;;;15.60;;
32365;SDS011;18837;46.832;16.838;2023-02-15T11:02:28;22.80;;;15.47;;
32365;SDS011;18837;46.832;16.838;2023-02-15T11:07:52;24.17;;;16.00;;
32365;SDS011;18837;46.832;16.838;2023-02-15T11:10:33;24.00;;;16.47;;
32365;SDS011;18837;46.832;16.838;2023-02-15T11:13:02;24.23;;;15.83;;
32365;SDS011;18837;46.832;16.838;2023-02-15T11:15:44;23.23;;;15.67;;
32365;SDS011;18837;46.832;16.838;2023-02-15T11:21:01;22.07;;;15.80;;
32365;SDS011;18837;46.832;16.838;2023-02-15T11:23:45;23.90;;;16.57;;
32365;SDS011;18837;46.832;16.838;2023-02-15T11:29:01;22.43;;;16.13;;
32365;SDS011;18837;46.832;16.838;2023-02-15T11:37:19;23.50;;;15.83;;
32365;SDS011;18837;46.832;16.838;2023-02-15T11:39:50;24.80;;;15.60;;
32365;SDS011;18837;46.832;16.838;2023-02-15T11:42:20;22.67;;;16.17;;
32365;SDS011;18837;46.832;16.838;2023-02-15T11:47:41;27.03;;;16.77;;
32365;SDS011;18837;46.832;16.838;2023-02-15T11:50:23;24.30;;;16.27;;
32365;SDS011;18837;46.832;16.838;2023-02-15T11:52:59;23.67;;;16.10;;
32365;SDS011;18837;46.832;16.838;2023-02-15T11:55:27;24.20;;;16.97;;
32365;SDS011;18837;46.832;16.838;2023-02-15T12:03:43;27.87;;;18.40;;
32365;SDS011;18837;46.832;16.838;2023-02-15T12:12:45;26.10;;;17.40;;
32365;SDS011;18837;46.832;16.838;2023-02-15T12:15:12;28.03;;;18.80;;
32365;SDS011;18837;46.832;16.838;2023-02-15T12:17:40;27.17;;;18.73;;
32365;SDS011;18837;46.832;16.838;2023-02-15T12:22:41;25.57;;;17.27;;
32365;SDS011;18837;46.832;16.838;2023-02-15T12:25:26;24.00;;;17.93;;
32365;SDS011;18837;46.832;16.838;2023-02-15T12:28:02;25.10;;;16.87;;
32365;SDS011;18837;46.832;16.838;2023-02-15T12:33:04;26.13;;;17.63;;
32365;SDS011;18837;46.832;16.838;2023-02-15T12:38:40;32.17;;;19.30;;
32365;SDS011;18837;46.832;16.838;2023-02-15T12:44:25;29.77;;;18.53;;
32365;SDS011;18837;46.832;16.838;2023-02-15T12:47:01;25.83;;;17.67;;
32365;SDS011;18837;46.832;16.838;2023-02-15T12:49:34;25.17;;;17.63;;
32365;SDS011;18837;46.832;16.838;2023-02-15T12:52:05;28.63;;;17.80;;
32365;SDS011;18837;46.832;16.838;2023-02-15T12:54:47;28.90;;;19.87;;
32365;SDS011;18837;46.832;16.838;2023-02-15T12:57:15;28.80;;;20.13;;
32365;SDS011;18837;46.832;16.838;2023-02-15T13:02:56;29.27;;;19.00;;
32365;SDS011;18837;46.832;16.838;2023-02-15T13:05:31;28.60;;;19.60;;
32365;SDS011;18837;46.832;16.838;2023-02-15T13:07:58;26.90;;;19.00;;
32365;SDS011;18837;46.832;16.838;2023-02-15T13:10:57;25.20;;;17.57;;
32365;SDS011;18837;46.832;16.838;2023-02-15T13:13:24;29.13;;;19.07;;
32365;SDS011;18837;46.832;16.838;2023-02-15T13:18:43;36.43;;;23.83;;
32365;SDS011;18837;46.832;16.838;2023-02-15T13:23:39;50.33;;;33.43;;
32365;SDS011;18837;46.832;16.838;2023-02-15T13:26:13;43.40;;;28.90;;
32365;SDS011;18837;46.832;16.838;2023-02-15T13:28:43;43.67;;;29.30;;
32365;SDS011;18837;46.832;16.838;2023-02-15T13:31:12;39.07;;;25.53;;
32365;SDS011;18837;46.832;16.838;2023-02-15T13:34:00;37.33;;;25.83;;
32365;SDS011;18837;46.832;16.838;2023-02-15T13:42:00;31.37;;;22.23;;
32365;SDS011;18837;46.832;16.838;2023-02-15T13:44:53;34.33;;;23.17;;
32365;SDS011;18837;46.832;16.838;2023-02-15T13:59:22;31.13;;;20.93;;
32365;SDS011;18837;46.832;16.838;2023-02-15T14:11:06;25.33;;;18.60;;
32365;SDS011;18837;46.832;16.838;2023-02-15T14:14:08;30.40;;;20.40;;
32365;SDS011;18837;46.832;16.838;2023-02-15T14:30:43;34.73;;;23.47;;
32365;SDS011;18837;46.832;16.838;2023-02-15T14:33:33;35.30;;;23.30;;
32365;SDS011;18837;46.832;16.838;2023-02-15T14:36:08;32.23;;;22.10;;
32365;SDS011;18837;46.832;16.838;2023-02-15T14:41:53;33.77;;;22.37;;
32365;SDS011;18837;46.832;16.838;2023-02-15T14:45:20;30.40;;;20.37;;
32365;SDS011;18837;46.832;16.838;2023-02-15T14:47:42;29.30;;;20.80;;
32365;SDS011;18837;46.832;16.838;2023-02-15T14:50:56;27.20;;;20.47;;
32365;SDS011;18837;46.832;16.838;2023-02-15T14:53:49;30.90;;;20.13;;
32365;SDS011;18837;46.832;16.838;2023-02-15T15:07:52;32.90;;;21.73;;
32365;SDS011;18837;46.832;16.838;2023-02-15T15:12:50;33.53;;;23.03;;
32365;SDS011;18837;46.832;16.838;2023-02-15T15:18:12;37.67;;;25.40;;
32365;SDS011;18837;46.832;16.838;2023-02-15T15:21:06;35.57;;;22.83;;
32365;SDS011;18837;46.832;16.838;2023-02-15T15:23:42;38.47;;;25.93;;
32365;SDS011;18837;46.832;16.838;2023-02-15T15:26:24;38.13;;;24.67;;
32365;SDS011;18837;46.832;16.838;2023-02-15T15:40:26;36.00;;;23.37;;
32365;SDS011;18837;46.832;16.838;2023-02-15T15:43:29;35.43;;;23.40;;
32365;SDS011;18837;46.832;16.838;2023-02-15T15:46:31;33.53;;;23.40;;
32365;SDS011;18837;46.832;16.838;2023-02-15T15:49:17;33.60;;;23.10;;
32365;SDS011;18837;46.832;16.838;2023-02-15T15:51:47;31.30;;;22.00;;
32365;SDS011;18837;46.832;16.838;2023-02-15T15:54:21;31.60;;;21.43;;
32365;SDS011;18837;46.832;16.838;2023-02-15T15:56:50;27.97;;;20.10;;
32365;SDS011;18837;46.832;16.838;2023-02-15T15:59:20;27.47;;;20.13;;
32365;SDS011;18837;46.832;16.838;2023-02-15T16:01:49;29.70;;;20.17;;
32365;SDS011;18837;46.832;16.838;2023-02-15T16:04:28;29.03;;;19.87;;
32365;SDS011;18837;46.832;16.838;2023-02-15T16:12:59;33.50;;;22.40;;
32365;SDS011;18837;46.832;16.838;2023-02-15T16:15:41;31.37;;;21.80;;
32365;SDS011;18837;46.832;16.838;2023-02-15T16:18:17;29.77;;;21.30;;
32365;SDS011;18837;46.832;16.838;2023-02-15T16:20:54;33.03;;;22.10;;
32365;SDS011;18837;46.832;16.838;2023-02-15T16:29:30;29.23;;;21.20;;
32365;SDS011;18837;46.832;16.838;2023-02-15T16:32:01;29.43;;;20.67;;
32365;SDS011;18837;46.832;16.838;2023-02-15T16:34:57;30.70;;;21.13;;
32365;SDS011;18837;46.832;16.838;2023-02-15T16:37:31;28.40;;;19.93;;
32365;SDS011;18837;46.832;16.838;2023-02-15T16:39:58;29.40;;;19.80;;
32365;SDS011;18837;46.832;16.838;2023-02-15T16:48:06;28.70;;;19.63;;
32365;SDS011;18837;46.832;16.838;2023-02-15T16:50:37;30.10;;;20.83;;
32365;SDS011;18837;46.832;16.838;2023-02-15T16:53:04;27.13;;;19.60;;
32365;SDS011;18837;46.832;16.838;2023-02-15T16:55:35;28.77;;;20.43;;
32365;SDS011;18837;46.832;16.838;2023-02-15T16:58:05;29.13;;;20.70;;
32365;SDS011;18837;46.832;16.838;2023-02-15T17:08:48;27.97;;;19.20;;
32365;SDS011;18837;46.832;16.838;2023-02-15T17:20:01;28.80;;;18.23;;
32365;SDS011;18837;46.832;16.838;2023-02-15T17:22:32;26.20;;;19.00;;
32365;SDS011;18837;46.832;16.838;2023-02-15T17:24:59;26.57;;;19.17;;
32365;SDS011;18837;46.832;16.838;2023-02-15T17:27:29;28.47;;;19.53;;
32365;SDS011;18837;46.832;16.838;2023-02-15T17:30:00;26.60;;;19.23;;
32365;SDS011;18837;46.832;16.838;2023-02-15T17:32:29;27.70;;;19.37;;
32365;SDS011;18837;46.832;16.838;2023-02-15T17:34:59;27.37;;;19.07;;
32365;SDS011;18837;46.832;16.838;2023-02-15T17:40:21;28.10;;;19.30;;
32365;SDS011;18837;46.832;16.838;2023-02-15T17:42:54;25.47;;;17.83;;
32365;SDS011;18837;46.832;16.838;2023-02-15T17:45:21;26.27;;;19.27;;
32365;SDS011;18837;46.832;16.838;2023-02-15T17:47:49;26.63;;;17.87;;
32365;SDS011;18837;46.832;16.838;2023-02-15T17:50:22;27.40;;;18.87;;
32365;SDS011;18837;46.832;16.838;2023-02-15T17:52:52;27.03;;;18.33;;
32365;SDS011;18837;46.832;16.838;2023-02-15T17:55:21;25.80;;;18.30;;
32365;SDS011;18837;46.832;16.838;2023-02-15T17:58:00;26.83;;;17.83;;
32365;SDS011;18837;46.832;16.838;2023-02-15T18:00:43;25.17;;;17.47;;
32365;SDS011;18837;46.832;16.838;2023-02-15T18:03:45;24.87;;;17.20;;
32365;SDS011;18837;46.832;16.838;2023-02-15T18:06:31;24.20;;;17.47;;
32365;SDS011;18837;46.832;16.838;2023-02-15T18:09:17;24.93;;;17.70;;
32365;SDS011;18837;46.832;16.838;2023-02-15T18:14:51;24.90;;;17.23;;
32365;SDS011;18837;46.832;16.838;2023-02-15T18:17:18;25.47;;;17.13;;
32365;SDS011;18837;46.832;16.838;2023-02-15T18:19:51;30.23;;;19.30;;
32365;SDS011;18837;46.832;16.838;2023-02-15T18:22:18;24.77;;;17.17;;
32365;SDS011;18837;46.832;16.838;2023-02-15T18:24:56;29.77;;;18.73;;
32365;SDS011;18837;46.832;16.838;2023-02-15T18:35:12;25.93;;;18.17;;
32365;SDS011;18837;46.832;16.838;2023-02-15T18:37:42;26.07;;;18.07;;
32365;SDS011;18837;46.832;16.838;2023-02-15T18:40:15;27.70;;;18.50;;
32365;SDS011;18837;46.832;16.838;2023-02-15T18:42:42;27.00;;;18.13;;
32365;SDS011;18837;46.832;16.838;2023-02-15T18:45:19;28.57;;;19.03;;
32365;SDS011;18837;46.832;16.838;2023-02-15T18:48:00;26.53;;;18.17;;
32365;SDS011;18837;46.832;16.838;2023-02-15T18:50:31;26.97;;;18.17;;